Time;durP1;ratioP1;P1;durP2;ratioP2;P2;SDS_P1;SDS_P2;PMS_P1;PMS_P2;Temp;Humidity;BMP_temperature;BMP_pressure;BME280_temperature;BME280_humidity;BME280_pressure;Samples;Min_cycle;Max_cycle;Signal;HPM_P1;HPM_P2
2023/07/18 00:01:35;;;;;;;0.43;0.43;;;;;;;26.03;55.13;100058.88;4414016;32;34009;-85
2023/07/18 00:04:03;;;;;;;2.10;0.82;;;;;;;26.08;55.00;100061.94;4403901;32;32669;-85
2023/07/18 00:06:32;;;;;;;0.35;0.35;;;;;;;26.08;54.95;100061.94;4417708;32;34282;-85
2023/07/18 00:08:59;;;;;;;2.17;0.85;;;;;;;25.93;54.97;100063.53;4403120;32;33557;-85
2023/07/18 00:11:27;;;;;;;9.05;0.90;;;;;;;26.03;54.49;100064.28;4428851;32;34054;-85
2023/07/18 00:13:55;;;;;;;1.08;0.37;;;;;;;26.00;54.53;100062.72;4403508;32;33964;-85
2023/07/18 00:16:22;;;;;;;0.93;0.90;;;;;;;25.97;54.63;100070.31;4415415;32;34108;-85
2023/07/18 00:18:50;;;;;;;0.40;0.40;;;;;;;25.98;54.49;100072.03;4428913;32;33594;-85
2023/07/18 00:21:18;;;;;;;1.87;1.12;;;;;;;25.89;54.73;100067.56;4415477;32;33607;-85
2023/07/18 00:23:46;;;;;;;0.40;0.22;;;;;;;25.91;54.72;100062.84;4422060;32;32319;-85
2023/07/18 00:26:14;;;;;;;0.57;0.52;;;;;;;25.88;54.74;100066.72;4418134;32;32464;-85
2023/07/18 00:28:41;;;;;;;0.37;0.35;;;;;;;25.92;54.81;100068.09;4416690;32;32546;-85
2023/07/18 00:31:09;;;;;;;0.47;0.47;;;;;;;25.85;55.01;100058.91;4416136;32;33946;-85
2023/07/18 00:33:37;;;;;;;0.30;0.30;;;;;;;25.92;54.82;100067.22;4427924;32;33765;-85
2023/07/18 00:36:05;;;;;;;0.30;0.30;;;;;;;25.88;54.88;100055.06;4427928;32;34425;-85
2023/07/18 00:38:32;;;;;;;1.48;0.47;;;;;;;25.91;54.75;100049.31;4414136;32;33639;-85
2023/07/18 00:41:01;;;;;;;0.70;0.52;;;;;;;25.87;54.84;100053.34;4426642;32;33616;-85
2023/07/18 00:43:33;;;;;;;0.55;0.52;;;;;;;25.90;54.58;100053.87;4401934;32;33151;-85
2023/07/18 00:46:03;;;;;;;0.17;0.17;;;;;;;25.87;54.68;100053.34;4410943;32;33203;-85
2023/07/18 00:48:34;;;;;;;3.00;0.50;;;;;;;25.73;55.08;100055.59;4402730;32;32977;-85
2023/07/18 00:51:04;;;;;;;0.60;0.60;;;;;;;26.00;54.44;100043.78;4418137;32;34063;-85
2023/07/18 00:53:32;;;;;;;0.30;0.30;;;;;;;25.68;55.24;100052.50;4418550;32;33300;-85
2023/07/18 00:56:00;;;;;;;0.35;0.35;;;;;;;25.65;55.33;100050.13;4426426;32;33438;-85
2023/07/18 00:58:28;;;;;;;1.83;1.15;;;;;;;25.62;55.67;100050.44;4416223;32;32991;-85
2023/07/18 01:01:00;;;;;;;1.23;0.65;;;;;;;25.87;54.92;100058.75;4413632;32;34038;-84
2023/07/18 01:03:29;;;;;;;0.50;0.50;;;;;;;25.64;55.70;100058.41;4404512;32;34074;-85
2023/07/18 01:05:57;;;;;;;1.42;0.95;;;;;;;25.65;55.74;100060.94;4414634;32;34240;-84
2023/07/18 01:08:25;;;;;;;0.17;0.10;;;;;;;25.66;55.64;100057.22;4427041;32;34253;-85
2023/07/18 01:10:52;;;;;;;0.40;0.40;;;;;;;25.58;55.88;100059.84;4417634;32;32740;-85
2023/07/18 01:13:20;;;;;;;1.10;0.93;;;;;;;25.55;56.04;100060.19;4413626;32;32737;-85
2023/07/18 01:15:49;;;;;;;1.27;0.65;;;;;;;25.46;56.61;100044.91;4415055;32;34048;-85
2023/07/18 01:18:17;;;;;;;0.30;0.30;;;;;;;25.38;56.71;100053.78;4428303;32;34061;-85
2023/07/18 01:20:46;;;;;;;0.82;0.82;;;;;;;25.70;55.52;100045.09;4414334;32;35251;-85
2023/07/18 01:23:13;;;;;;;0.57;0.57;;;;;;;25.46;56.31;100034.09;4417786;32;33847;-85
2023/07/18 01:25:42;;;;;;;3.00;0.77;;;;;;;25.36;56.81;100039.59;4428498;32;34933;-85
2023/07/18 01:28:10;;;;;;;1.55;1.27;;;;;;;25.40;56.86;100038.28;4417670;32;33997;-85
2023/07/18 01:30:38;;;;;;;0.25;0.25;;;;;;;25.26;57.62;100042.38;4417587;32;33953;-85
2023/07/18 01:33:06;;;;;;;0.50;0.50;;;;;;;25.42;57.11;100038.13;4402797;32;33152;-85
2023/07/18 01:35:36;;;;;;;1.45;0.85;;;;;;;25.39;56.99;100038.41;4416549;32;33246;-85
2023/07/18 01:38:04;;;;;;;1.42;0.52;;;;;;;25.37;57.15;100035.03;4422316;32;34175;-85
2023/07/18 01:40:31;;;;;;;1.42;0.22;;;;;;;25.33;57.30;100039.06;4413634;32;34483;-85
2023/07/18 01:43:01;;;;;;;0.50;0.50;;;;;;;25.32;57.23;100037.37;4399879;32;33132;-85
2023/07/18 01:45:28;;;;;;;1.35;0.98;;;;;;;25.37;56.75;100040.44;4417830;32;33301;-85
2023/07/18 01:47:56;;;;;;;1.30;1.23;;;;;;;25.26;57.10;100038.84;4426890;32;34430;-85
2023/07/18 01:50:25;;;;;;;0.70;0.43;;;;;;;25.28;56.97;100043.06;4412932;32;32696;-85
2023/07/18 01:52:52;;;;;;;0.10;0.10;;;;;;;25.25;56.89;100047.94;4416480;32;34509;-85
2023/07/18 01:55:20;;;;;;;1.08;0.70;;;;;;;25.22;56.84;100043.69;4411487;32;34237;-85
2023/07/18 01:57:49;;;;;;;0.40;0.30;;;;;;;25.19;56.95;100044.00;4417062;32;33234;-85
2023/07/18 02:00:18;;;;;;;1.35;0.52;;;;;;;25.14;56.99;100046.31;4403080;32;33286;-85
2023/07/18 02:02:48;;;;;;;0.43;0.43;;;;;;;25.21;56.85;100035.72;4403450;32;33850;-85
2023/07/18 02:05:19;;;;;;;0.50;0.50;;;;;;;25.24;56.69;100055.19;4413715;32;33321;-85
2023/07/18 02:07:47;;;;;;;0.37;0.30;;;;;;;25.18;56.72;100060.38;4417758;32;33795;-85
2023/07/18 02:10:19;;;;;;;2.12;0.95;;;;;;;25.21;56.61;100065.44;4411697;32;33457;-85
2023/07/18 02:12:47;;;;;;;0.62;0.57;;;;;;;25.19;56.85;100065.62;4412788;32;33324;-85
2023/07/18 02:15:15;;;;;;;0.62;0.62;;;;;;;25.22;56.70;100059.06;4412858;32;33767;-85
2023/07/18 02:17:43;;;;;;;0.32;0.30;;;;;;;25.44;56.09;100069.38;4416267;32;34100;-85
2023/07/18 02:20:11;;;;;;;0.70;0.70;;;;;;;25.39;56.37;100076.25;4427368;32;34052;-85
2023/07/18 02:22:42;;;;;;;0.43;0.43;;;;;;;25.19;57.22;100079.12;4413206;32;33904;-85
2023/07/18 02:25:10;;;;;;;1.17;1.08;;;;;;;25.14;57.50;100078.75;4429995;32;32410;-85
2023/07/18 02:27:39;;;;;;;2.15;0.75;;;;;;;25.24;57.07;100084.91;4415113;32;34524;-85
2023/07/18 02:30:09;;;;;;;0.35;0.35;;;;;;;25.13;57.34;100095.97;4413735;32;33927;-85
2023/07/18 02:32:38;;;;;;;0.88;0.60;;;;;;;25.12;57.52;100093.44;4412098;32;34843;-85
2023/07/18 02:35:08;;;;;;;0.30;0.30;;;;;;;25.10;57.55;100101.66;4410975;32;34549;-85
2023/07/18 02:37:36;;;;;;;1.42;0.90;;;;;;;25.13;57.34;100100.53;4403466;32;34454;-85
2023/07/18 02:40:09;;;;;;;0.50;0.45;;;;;;;25.18;57.05;100100.91;4403268;32;34892;-85
2023/07/18 02:42:38;;;;;;;0.40;0.40;;;;;;;25.16;57.20;100100.19;4403383;32;33011;-85
2023/07/18 02:45:09;;;;;;;0.40;0.40;;;;;;;25.12;57.20;100102.38;4401687;32;32104;-85
2023/07/18 02:47:39;;;;;;;0.50;0.50;;;;;;;25.10;57.35;100100.81;4401171;32;34733;-85
2023/07/18 02:50:08;;;;;;;0.62;0.62;;;;;;;25.10;57.36;100109.78;4412235;32;32810;-85
2023/07/18 02:52:36;;;;;;;1.20;1.10;;;;;;;25.05;57.59;100112.06;4400293;32;33586;-85
2023/07/18 02:55:04;;;;;;;0.32;0.32;;;;;;;25.01;57.70;100111.50;4414011;32;32881;-85
2023/07/18 02:57:32;;;;;;;1.33;0.77;;;;;;;25.00;57.64;100117.06;4426188;32;34308;-85
2023/07/18 03:00:00;;;;;;;0.55;0.55;;;;;;;25.11;57.25;100124.13;4413883;32;33310;-85
2023/07/18 03:02:31;;;;;;;1.35;0.50;;;;;;;24.97;57.65;100125.47;4411384;32;32770;-85
2023/07/18 03:04:59;;;;;;;0.47;0.45;;;;;;;24.88;58.11;100121.00;4426639;32;33177;-85
2023/07/18 03:07:27;;;;;;;0.52;0.52;;;;;;;24.86;58.20;100126.53;4431834;32;35167;-85
2023/07/18 03:09:55;;;;;;;0.50;0.50;;;;;;;24.84;58.29;100128.53;4414544;32;32830;-85
2023/07/18 03:12:22;;;;;;;0.52;0.52;;;;;;;24.81;58.22;100133.38;4416111;32;32391;-85
2023/07/18 03:14:50;;;;;;;0.55;0.55;;;;;;;24.80;58.47;100129.00;4416107;32;34750;-85
2023/07/18 03:17:17;;;;;;;0.52;0.40;;;;;;;24.83;58.40;100124.16;4404242;32;33338;-85
2023/07/18 03:19:46;;;;;;;0.43;0.37;;;;;;;24.85;58.18;100122.13;4416789;32;34678;-85
2023/07/18 03:22:14;;;;;;;0.50;0.47;;;;;;;24.92;57.88;100125.06;4430135;32;33795;-85
2023/07/18 03:24:42;;;;;;;0.17;0.17;;;;;;;24.75;58.30;100122.19;4426968;32;33159;-84
2023/07/18 03:27:09;;;;;;;0.77;0.77;;;;;;;24.83;58.15;100112.47;4429579;32;34778;-85
2023/07/18 03:29:37;;;;;;;0.75;0.30;;;;;;;24.89;58.05;100106.47;4417773;32;32983;-85
2023/07/18 03:32:05;;;;;;;0.15;0.15;;;;;;;24.72;58.67;100113.53;4418659;32;33880;-85
2023/07/18 03:34:34;;;;;;;0.35;0.35;;;;;;;24.84;58.40;100115.03;4404622;32;33300;-85
2023/07/18 03:37:01;;;;;;;0.40;0.40;;;;;;;24.83;58.44;100112.47;4429493;32;33996;-85
2023/07/18 03:39:29;;;;;;;0.20;0.20;;;;;;;24.82;58.61;100116.16;4430884;32;34375;-85
2023/07/18 03:41:56;;;;;;;1.00;1.00;;;;;;;24.82;58.55;100117.03;4402259;32;33422;-85
2023/07/18 03:44:24;;;;;;;0.40;0.40;;;;;;;24.90;58.61;100117.12;4425992;32;34273;-85
2023/07/18 03:46:51;;;;;;;2.17;1.10;;;;;;;24.90;58.99;100118.97;4427570;32;34336;-85
2023/07/18 03:49:37;;;;;;;1.00;1.00;;;;;;;25.02;58.78;100115.91;4417436;32;33705;-85
2023/07/18 03:52:05;;;;;;;0.20;0.20;;;;;;;25.09;58.83;100116.19;4414972;32;33908;-85
2023/07/18 03:54:34;;;;;;;0.40;0.40;;;;;;;25.08;58.72;100128.00;4416812;32;33806;-85
2023/07/18 03:57:02;;;;;;;1.58;0.80;;;;;;;25.36;57.78;100136.06;4409165;32;32355;-85
2023/07/18 03:59:31;;;;;;;0.88;0.88;;;;;;;25.37;57.76;100135.06;4430113;32;34481;-85
2023/07/18 04:01:58;;;;;;;0.57;0.57;;;;;;;25.25;58.12;100137.12;4428547;32;34731;-85
2023/07/18 04:04:29;;;;;;;1.62;0.90;;;;;;;25.27;58.22;100133.25;4427797;32;33750;-85
2023/07/18 04:06:56;;;;;;;0.55;0.55;;;;;;;25.40;57.67;100129.31;4417682;32;33655;-85
2023/07/18 04:09:24;;;;;;;0.25;0.25;;;;;;;25.51;57.22;100121.84;4414401;32;33945;-85
2023/07/18 04:11:52;;;;;;;0.70;0.70;;;;;;;25.54;57.28;100134.19;4430063;32;33680;-85
2023/07/18 04:14:19;;;;;;;0.35;0.35;;;;;;;25.66;56.78;100127.53;4431240;32;34325;-85
2023/07/18 04:16:47;;;;;;;2.37;0.40;;;;;;;25.93;56.84;100123.06;4415913;32;33587;-85
2023/07/18 04:19:14;;;;;;;2.83;0.65;;;;;;;26.07;56.94;100129.75;4429257;32;34472;-85
2023/07/18 04:21:42;;;;;;;1.60;0.82;;;;;;;26.18;56.31;100132.19;4428893;32;34150;-85
2023/07/18 04:24:10;;;;;;;0.32;0.32;;;;;;;26.23;56.50;100127.97;4415076;32;33342;-85
2023/07/18 04:26:38;;;;;;;0.62;0.43;;;;;;;26.39;55.75;100134.50;4429194;32;33751;-85
2023/07/18 04:29:06;;;;;;;0.50;0.47;;;;;;;26.38;54.10;100138.22;4403676;32;34137;-85
2023/07/18 04:31:33;;;;;;;1.35;0.82;;;;;;;26.62;54.23;100138.38;4413323;32;33252;-85
2023/07/18 04:34:01;;;;;;;0.32;0.32;;;;;;;26.79;54.30;100134.72;4403210;32;32040;-85
2023/07/18 04:36:28;;;;;;;0.47;0.47;;;;;;;26.89;54.17;100140.00;4416142;32;32956;-85
2023/07/18 04:38:56;;;;;;;0.52;0.52;;;;;;;26.95;53.32;100133.94;4431024;32;32937;-85
2023/07/18 04:41:24;;;;;;;0.57;0.45;;;;;;;27.29;52.83;100139.28;4402836;32;34777;-85
2023/07/18 04:43:51;;;;;;;1.95;1.25;;;;;;;27.13;51.51;100130.28;4431683;32;33531;-85
2023/07/18 04:46:19;;;;;;;0.80;0.80;;;;;;;27.16;51.65;100127.25;4426894;32;33624;-85
2023/07/18 04:48:47;;;;;;;1.58;0.77;;;;;;;27.37;51.82;100134.91;4416062;32;34072;-85
2023/07/18 04:51:16;;;;;;;2.85;0.95;;;;;;;27.78;51.55;100144.81;4403113;32;33105;-85
2023/07/18 04:53:44;;;;;;;0.77;0.75;;;;;;;27.92;50.85;100150.59;4429782;32;33637;-86
2023/07/18 04:56:12;;;;;;;1.02;1.02;;;;;;;28.09;49.60;100149.53;4429742;32;33995;-85
2023/07/18 04:58:40;;;;;;;0.60;0.60;;;;;;;27.98;50.33;100160.75;4415164;32;33918;-85
2023/07/18 05:01:08;;;;;;;0.68;0.68;;;;;;;27.64;50.70;100156.31;4427759;32;33965;-85
2023/07/18 05:03:36;;;;;;;0.47;0.47;;;;;;;28.02;49.91;100157.53;4417277;32;33544;-86
2023/07/18 05:06:24;;;;;;;0.65;0.50;;;;;;;27.89;49.67;100156.34;4405221;32;32751;-85
2023/07/18 05:08:53;;;;;;;2.08;0.40;;;;;;;27.67;50.41;100160.53;4419104;32;32564;-86
2023/07/18 05:11:21;;;;;;;0.47;0.47;;;;;;;28.12;48.93;100151.91;4419156;32;32613;-86
2023/07/18 05:13:49;;;;;;;0.77;0.70;;;;;;;28.36;48.44;100155.63;4425511;32;32646;-86
2023/07/18 05:16:16;;;;;;;0.90;0.77;;;;;;;28.38;48.52;100165.28;4429072;32;32462;-85
2023/07/18 05:18:44;;;;;;;0.75;0.75;;;;;;;28.55;47.90;100166.94;4429188;32;34060;-85
2023/07/18 05:21:11;;;;;;;0.20;0.20;;;;;;;28.50;47.62;100171.22;4412944;32;33569;-85
2023/07/18 05:23:39;;;;;;;0.93;0.70;;;;;;;28.74;47.18;100173.84;4429870;32;33661;-85
2023/07/18 05:26:08;;;;;;;1.45;0.95;;;;;;;28.92;47.11;100180.94;4426790;32;33381;-86
2023/07/18 05:28:35;;;;;;;1.10;0.62;;;;;;;29.05;45.69;100175.78;4403381;32;33644;-85
2023/07/18 05:31:08;;;;;;;0.80;0.80;;;;;;;29.10;45.59;100178.81;4414922;32;33820;-86
2023/07/18 05:33:35;;;;;;;1.00;1.00;;;;;;;28.35;46.80;100164.81;4412818;32;32166;-85
2023/07/18 05:36:04;;;;;;;1.35;0.80;;;;;;;28.78;46.93;100169.78;4415364;32;32401;-85
2023/07/18 05:38:31;;;;;;;0.70;0.55;;;;;;;28.78;46.67;100177.91;4414374;32;33647;-85
2023/07/18 05:40:59;;;;;;;0.75;0.73;;;;;;;28.80;46.34;100185.87;4416047;32;33992;-85
2023/07/18 05:43:26;;;;;;;0.80;0.65;;;;;;;29.13;45.46;100175.75;4430036;32;33661;-85
2023/07/18 05:45:54;;;;;;;0.45;0.32;;;;;;;29.06;45.48;100174.78;4429504;32;33841;-85
2023/07/18 05:48:21;;;;;;;2.53;1.25;;;;;;;29.03;45.62;100162.37;4414358;32;34759;-86
2023/07/18 05:50:49;;;;;;;0.70;0.70;;;;;;;29.13;45.21;100173.03;4413846;32;33883;-85
2023/07/18 05:53:16;;;;;;;0.73;0.73;;;;;;;29.04;45.11;100163.22;4416018;32;33508;-85
2023/07/18 05:55:44;;;;;;;4.10;1.20;;;;;;;29.28;44.51;100171.22;4413643;32;34536;-86
2023/07/18 05:58:12;;;;;;;0.85;0.85;;;;;;;28.81;45.76;100182.13;4428029;32;33901;-86
2023/07/18 06:00:39;;;;;;;0.62;0.62;;;;;;;28.51;46.50;100181.06;4428601;32;33943;-85
2023/07/18 06:03:07;;;;;;;0.62;0.60;;;;;;;29.29;44.53;100181.12;4403877;32;33983;-86
2023/07/18 06:05:35;;;;;;;0.50;0.50;;;;;;;29.52;44.08;100175.66;4431402;32;33851;-86
2023/07/18 06:08:03;;;;;;;10.40;1.40;;;;;;;29.24;45.30;100180.78;4427585;32;34822;-85
2023/07/18 06:10:31;;;;;;;0.40;0.32;;;;;;;29.11;45.58;100191.41;4400013;32;32663;-86
2023/07/18 06:12:58;;;;;;;26.10;1.00;;;;;;;29.44;45.55;100191.22;4429131;32;33372;-85
2023/07/18 06:15:26;;;;;;;0.10;0.10;;;;;;;29.48;45.48;100187.09;4400658;32;34119;-86
2023/07/18 06:17:54;;;;;;;2.00;1.77;;;;;;;29.81;44.29;100193.19;4430196;32;33932;-86
2023/07/18 06:20:22;;;;;;;0.70;0.62;;;;;;;30.30;44.01;100188.19;4429271;32;34613;-85
2023/07/18 06:22:49;;;;;;;1.70;1.10;;;;;;;30.02;44.02;100192.53;4431888;32;33527;-86
2023/07/18 06:25:17;;;;;;;0.62;0.62;;;;;;;30.03;44.33;100189.59;4404511;32;34159;-86
2023/07/18 06:27:45;;;;;;;2.15;0.95;;;;;;;30.02;42.99;100195.25;4433875;32;34340;-86
2023/07/18 06:30:12;;;;;;;0.80;0.80;;;;;;;30.08;42.11;100195.34;4424521;32;34565;-85
2023/07/18 06:32:40;;;;;;;0.77;0.77;;;;;;;29.93;42.96;100199.06;4429893;32;33677;-86
2023/07/18 06:35:10;;;;;;;0.77;0.77;;;;;;;30.06;42.28;100191.97;4417828;32;34387;-85
2023/07/18 06:37:41;;;;;;;0.80;0.80;;;;;;;29.42;43.81;100204.16;4427629;32;34411;-86
2023/07/18 06:40:11;;;;;;;1.42;1.23;;;;;;;29.71;43.00;100198.88;4404148;32;33623;-85
2023/07/18 06:42:39;;;;;;;0.20;0.20;;;;;;;29.72;42.64;100214.19;4415666;32;33192;-86
2023/07/18 06:45:07;;;;;;;4.32;2.15;;;;;;;29.76;42.89;100207.34;4417534;32;32762;-86
2023/07/18 06:47:35;;;;;;;0.62;0.62;;;;;;;30.03;42.46;100214.09;4429734;32;33526;-86
2023/07/18 06:50:03;;;;;;;2.00;1.23;;;;;;;30.23;41.91;100214.47;4418256;32;34190;-85
2023/07/18 06:52:30;;;;;;;0.50;0.30;;;;;;;30.24;42.68;100221.62;4411729;32;34477;-86
2023/07/18 06:55:06;;;;;;;0.80;0.55;;;;;;;30.38;42.11;100208.19;4418355;32;34077;-85
2023/07/18 06:57:34;;;;;;;0.62;0.62;;;;;;;30.64;42.14;100208.62;4429262;32;33069;-86
2023/07/18 07:00:06;;;;;;;0.45;0.45;;;;;;;30.42;41.30;100212.25;4430687;32;33709;-86
2023/07/18 07:02:35;;;;;;;0.68;0.55;;;;;;;30.47;40.98;100209.81;4416245;32;33190;-86
2023/07/18 07:05:04;;;;;;;0.55;0.45;;;;;;;30.60;40.67;100216.31;4431180;32;33934;-86
2023/07/18 07:07:32;;;;;;;0.95;0.37;;;;;;;30.44;40.51;100227.41;4404289;32;32598;-86
2023/07/18 07:09:59;;;;;;;0.30;0.20;;;;;;;30.75;41.74;100224.53;4428630;32;33914;-86
2023/07/18 07:12:32;;;;;;;2.22;1.17;;;;;;;30.70;40.68;100229.66;4411126;32;32880;-86
2023/07/18 07:15:04;;;;;;;1.15;1.05;;;;;;;30.76;40.22;100230.81;4413765;32;33970;-86
2023/07/18 07:17:32;;;;;;;0.40;0.40;;;;;;;31.14;40.43;100228.81;4429861;32;34935;-86
2023/07/18 07:20:00;;;;;;;1.25;1.10;;;;;;;31.37;40.05;100235.03;4403484;32;32841;-86
2023/07/18 07:22:29;;;;;;;1.08;0.70;;;;;;;31.28;39.36;100225.25;4430242;32;33598;-86
2023/07/18 07:24:57;;;;;;;0.75;0.75;;;;;;;31.52;40.08;100225.97;4419489;32;34236;-86
2023/07/18 07:27:24;;;;;;;0.77;0.77;;;;;;;31.60;38.12;100231.31;4427785;32;34576;-86
2023/07/18 07:29:52;;;;;;;4.95;0.85;;;;;;;31.96;36.61;100214.91;4432979;32;33774;-86
2023/07/18 07:32:20;;;;;;;0.95;0.60;;;;;;;31.68;37.04;100224.91;4415558;32;33136;-86
2023/07/18 07:34:47;;;;;;;0.60;0.60;;;;;;;31.72;38.13;100221.59;4416100;32;34309;-86
2023/07/18 07:37:15;;;;;;;1.20;0.68;;;;;;;31.91;36.59;100224.75;4424459;32;34155;-86
2023/07/18 07:39:43;;;;;;;0.98;0.90;;;;;;;32.01;36.57;100212.44;4433441;32;33946;-86
2023/07/18 07:42:11;;;;;;;1.17;1.02;;;;;;;32.28;35.50;100224.41;4428099;32;33626;-86
2023/07/18 07:44:38;;;;;;;0.88;0.88;;;;;;;32.16;37.59;100223.28;4415563;32;32214;-86
2023/07/18 07:47:06;;;;;;;1.27;0.62;;;;;;;31.64;37.98;100235.34;4415092;32;33240;-86
2023/07/18 07:49:33;;;;;;;0.35;0.30;;;;;;;31.83;36.63;100233.91;4428134;32;34954;-86
2023/07/18 07:52:02;;;;;;;2.00;1.52;;;;;;;31.85;37.34;100232.66;4432337;32;33153;-87
2023/07/18 07:54:30;;;;;;;1.17;0.65;;;;;;;31.79;35.24;100230.66;4432114;32;34275;-86
2023/07/18 07:56:58;;;;;;;0.62;0.50;;;;;;;32.31;34.36;100232.22;4416089;32;34716;-86
2023/07/18 07:59:25;;;;;;;0.62;0.62;;;;;;;32.20;35.78;100235.50;4414182;32;34954;-86
2023/07/18 08:01:53;;;;;;;1.95;0.80;;;;;;;32.21;34.52;100233.63;4393289;32;33113;-86
2023/07/18 08:04:21;;;;;;;0.57;0.57;;;;;;;32.11;34.48;100232.06;4414929;32;33712;-86
2023/07/18 08:06:48;;;;;;;1.60;1.12;;;;;;;32.33;34.83;100232.91;4417308;32;34790;-86
2023/07/18 08:09:16;;;;;;;8.27;0.80;;;;;;;32.71;32.86;100232.56;4404242;32;32756;-86
2023/07/18 08:11:44;;;;;;;0.82;0.60;;;;;;;32.70;32.85;100230.84;4416873;32;33521;-86
2023/07/18 08:14:11;;;;;;;0.37;0.35;;;;;;;32.99;31.70;100228.94;4416760;32;32239;-87
2023/07/18 08:16:39;;;;;;;1.27;0.47;;;;;;;32.31;31.01;100232.22;4416144;32;34181;-86
2023/07/18 08:19:07;;;;;;;1.10;0.70;;;;;;;32.57;30.38;100231.62;4430704;32;34529;-86
2023/07/18 08:21:35;;;;;;;0.22;0.22;;;;;;;32.33;29.81;100230.16;4416330;32;33054;-86
2023/07/18 08:24:03;;;;;;;0.82;0.73;;;;;;;32.32;29.80;100231.19;4432129;32;34522;-86
2023/07/18 08:26:32;;;;;;;2.55;0.88;;;;;;;32.51;29.70;100228.84;4401140;32;34495;-86
2023/07/18 08:29:00;;;;;;;5.05;1.02;;;;;;;32.33;29.54;100219.22;4413129;32;33526;-86
2023/07/18 08:31:27;;;;;;;0.80;0.80;;;;;;;32.04;30.73;100224.84;4413725;32;33268;-87
2023/07/18 08:33:55;;;;;;;1.70;0.95;;;;;;;31.99;31.35;100228.16;4402742;32;34016;-86
2023/07/18 08:36:22;;;;;;;0.85;0.85;;;;;;;31.98;30.37;100225.62;4429219;32;34020;-86
2023/07/18 08:38:50;;;;;;;0.85;0.85;;;;;;;31.72;30.85;100221.59;4417110;32;34769;-86
2023/07/18 08:41:21;;;;;;;1.08;0.43;;;;;;;31.55;31.62;100222.84;4429732;32;33333;-86
2023/07/18 08:43:49;;;;;;;0.95;0.85;;;;;;;31.70;30.40;100223.63;4430591;32;33647;-86
2023/07/18 08:46:17;;;;;;;0.62;0.62;;;;;;;31.93;30.72;100217.19;4422327;32;31891;-87
2023/07/18 08:48:45;;;;;;;0.50;0.50;;;;;;;31.87;30.76;100225.12;4402112;32;33725;-86
2023/07/18 08:51:14;;;;;;;0.62;0.62;;;;;;;31.43;32.49;100224.38;4409556;32;32711;-86
2023/07/18 08:53:41;;;;;;;0.98;0.95;;;;;;;32.11;31.03;100228.50;4430915;32;34100;-86
2023/07/18 08:56:09;;;;;;;1.85;0.88;;;;;;;32.21;31.86;100223.53;4430945;32;34013;-87
2023/07/18 08:58:37;;;;;;;1.10;1.00;;;;;;;32.47;31.08;100219.34;4416312;32;32847;-87
2023/07/18 09:01:06;;;;;;;4.87;1.15;;;;;;;32.76;29.26;100224.59;4417894;32;32944;-86
2023/07/18 09:03:35;;;;;;;11.80;0.82;;;;;;;32.84;29.87;100216.22;4415829;32;32519;-86
2023/07/18 09:06:03;;;;;;;0.73;0.70;;;;;;;33.13;29.21;100219.75;4429860;32;34338;-86
2023/07/18 09:08:42;;;;;;;0.57;0.57;;;;;;;33.32;28.50;100207.19;4427654;32;34134;-86
2023/07/18 09:11:12;;;;;;;4.40;0.52;;;;;;;33.29;28.54;100226.78;4416833;32;34442;-87
2023/07/18 09:13:41;;;;;;;0.68;0.65;;;;;;;33.18;29.31;100222.72;4425578;32;33855;-87
2023/07/18 09:16:21;;;;;;;0.52;0.50;;;;;;;33.32;28.30;100218.97;4414498;32;34724;-86
2023/07/18 09:18:51;;;;;;;1.70;1.40;;;;;;;33.77;29.28;100210.31;4415932;32;33605;-87
2023/07/18 09:21:19;;;;;;;0.90;0.70;;;;;;;33.71;26.07;100206.50;4416238;32;31917;-86
2023/07/18 09:23:48;;;;;;;0.80;0.73;;;;;;;33.32;25.96;100202.56;4413558;32;34384;-86
2023/07/18 09:26:18;;;;;;;1.02;1.02;;;;;;;33.11;26.22;100205.44;4415586;32;34760;-86
2023/07/18 09:28:47;;;;;;;2.92;0.82;;;;;;;33.25;26.65;100207.19;4413827;32;33709;-87
2023/07/18 09:31:23;;;;;;;0.80;0.80;;;;;;;32.80;25.53;100203.97;4413514;32;32648;-86
2023/07/18 09:33:52;;;;;;;0.60;0.60;;;;;;;32.49;26.57;100198.97;4414832;32;33639;-87
2023/07/18 09:36:27;;;;;;;1.10;0.90;;;;;;;32.84;26.76;100205.28;4414074;32;34620;-86
2023/07/18 09:38:54;;;;;;;1.20;0.50;;;;;;;33.09;26.55;100202.06;4414389;32;34865;-87
2023/07/18 09:41:23;;;;;;;0.43;0.37;;;;;;;33.11;28.04;100194.50;4390844;32;32855;-87
2023/07/18 09:43:54;;;;;;;2.85;1.05;;;;;;;33.59;25.98;100197.22;4417083;32;32586;-87
2023/07/18 09:46:43;;;;;;;1.33;1.25;;;;;;;33.64;26.34;100183.72;4421201;32;33905;-87
2023/07/18 09:49:11;;;;;;;0.30;0.30;;;;;;;33.50;25.55;100190.22;4428978;32;34487;-87
2023/07/18 09:51:52;;;;;;;1.33;0.60;;;;;;;33.54;26.23;100186.03;4414059;32;33984;-87
2023/07/18 09:54:20;;;;;;;1.98;1.55;;;;;;;33.84;25.39;100187.34;4416401;32;33127;-87
2023/07/18 09:56:48;;;;;;;0.85;0.85;;;;;;;33.94;24.98;100183.34;4415177;32;34415;-87
2023/07/18 09:59:16;;;;;;;2.58;1.48;;;;;;;34.49;26.71;100173.03;4429612;32;33857;-87
2023/07/18 10:01:45;;;;;;;0.77;0.77;;;;;;;34.42;24.34;100164.78;4402083;32;32189;-87
2023/07/18 10:04:13;;;;;;;0.50;0.50;;;;;;;34.38;24.23;100161.66;4414579;32;33863;-87
2023/07/18 10:06:40;;;;;;;0.55;0.55;;;;;;;33.97;25.96;100161.03;4414683;32;34996;-87
2023/07/18 10:09:08;;;;;;;0.52;0.52;;;;;;;33.97;25.66;100155.56;4403290;32;32596;-87
2023/07/18 10:11:57;;;;;;;1.75;1.00;;;;;;;34.01;25.47;100145.87;4414219;32;33738;-87
2023/07/18 10:14:29;;;;;;;1.10;1.00;;;;;;;33.66;26.31;100147.91;4414263;32;33391;-87
2023/07/18 10:17:05;;;;;;;2.10;0.93;;;;;;;33.68;26.45;100137.62;4419116;32;32906;-87
2023/07/18 10:19:50;;;;;;;0.13;0.13;;;;;;;33.71;26.78;100140.78;4426639;32;34029;-87
2023/07/18 10:22:28;;;;;;;9.10;0.57;;;;;;;33.88;25.38;100141.19;4416902;32;32839;-87
2023/07/18 10:25:06;;;;;;;0.62;0.47;;;;;;;33.30;26.58;100149.94;4409224;32;32879;-87
2023/07/18 10:27:39;;;;;;;0.95;0.47;;;;;;;33.57;25.70;100141.81;4415411;32;34133;-87
2023/07/18 10:30:10;;;;;;;3.08;0.77;;;;;;;34.15;25.63;100136.59;4416537;32;34090;-87
2023/07/18 10:32:41;;;;;;;0.57;0.57;;;;;;;34.73;23.56;100138.59;4427537;32;33057;-87
2023/07/18 10:35:10;;;;;;;0.25;0.25;;;;;;;34.64;23.88;100130.59;4408232;32;33975;-86
2023/07/18 10:37:49;;;;;;;0.40;0.40;;;;;;;34.30;24.03;100130.88;4414332;32;33647;-87
2023/07/18 10:40:35;;;;;;;0.20;0.20;;;;;;;34.47;24.37;100126.66;4392967;32;33390;-87
2023/07/18 10:43:24;;;;;;;1.92;0.90;;;;;;;34.22;24.36;100120.12;4428673;32;33976;-87
2023/07/18 10:45:52;;;;;;;0.70;0.70;;;;;;;34.57;24.23;100117.97;4411756;32;32470;-88
2023/07/18 10:48:20;;;;;;;0.20;0.20;;;;;;;34.83;23.74;100114.28;4414042;32;34762;-87
2023/07/18 10:50:48;;;;;;;0.73;0.73;;;;;;;35.23;24.08;100106.72;4404778;32;33716;-87
2023/07/18 10:53:18;;;;;;;0.45;0.45;;;;;;;35.05;24.33;100114.84;4416361;32;33298;-87
2023/07/18 10:55:47;;;;;;;0.98;0.98;;;;;;;35.02;22.97;100104.31;4417524;32;34058;-87
2023/07/18 10:58:16;;;;;;;3.15;1.00;;;;;;;34.57;23.52;100112.50;4399247;32;33409;-87
2023/07/18 11:00:44;;;;;;;1.08;0.55;;;;;;;34.69;23.26;100110.75;4402702;32;33858;-87
2023/07/18 11:03:34;;;;;;;0.50;0.50;;;;;;;34.94;23.56;100105.34;4413802;32;34033;-87
2023/07/18 11:06:06;;;;;;;0.22;0.22;;;;;;;34.96;23.78;100103.28;4413837;32;33837;-87
2023/07/18 11:08:34;;;;;;;1.25;0.35;;;;;;;34.57;22.87;100096.88;4413595;32;34938;-88
2023/07/18 11:11:04;;;;;;;0.90;0.70;;;;;;;34.53;23.28;100100.28;4414560;32;34134;-87
2023/07/18 11:13:33;;;;;;;0.40;0.40;;;;;;;34.64;23.86;100096.84;4409220;32;32174;-87
2023/07/18 11:16:07;;;;;;;0.30;0.30;;;;;;;35.12;22.15;100099.16;4411594;32;34509;-87
2023/07/18 11:18:36;;;;;;;0.30;0.30;;;;;;;35.42;23.25;100085.69;4421402;32;33475;-87
2023/07/18 11:21:04;;;;;;;2.05;1.45;;;;;;;34.81;22.37;100086.22;4400437;32;33528;-87
2023/07/18 11:23:34;;;;;;;2.22;1.12;;;;;;;35.05;22.35;100084.66;4402397;32;33174;-87
2023/07/18 11:26:12;;;;;;;0.60;0.45;;;;;;;35.37;23.05;100080.87;4417490;32;34267;-87
2023/07/18 11:28:41;;;;;;;0.80;0.73;;;;;;;35.89;21.68;100078.78;4424775;32;34708;-87
2023/07/18 11:31:29;;;;;;;1.02;0.88;;;;;;;35.78;22.67;100074.00;4413721;32;34139;-87
2023/07/18 11:34:09;;;;;;;0.73;0.60;;;;;;;35.99;21.90;100069.19;4421980;32;33775;-87